Latest Weather Observations for Sydney Harbour

IDN60801

Issued at 7:02 pm EDT Wednesday 18 January 2017 (issued every 30 minutes, with the page automatically refreshed every 10 minutes)

About weather observations | Map of weather stations | Latest weather observations for NSW | Other Formats
Station Details ID: 066196 Name: WEDDING CAKE WEST Lat: -33.84 Lon: 151.26 Height: 6.0 m
Data from the previous 72 hours. | See also: Recent months at Sydney Harbour
Date/Time
EDT
Temp
°C
App
Temp
°C
Dew
Point
°C
Rel
Hum
%
Delta-T
°C
Wind Press
QNH
hPa
Press
MSL
hPa
Rain since
9am
mm
Dir  Spd
km/h
Gust
km/h
Spd
kts
Gust
kts
18/07:00pm 23.0 - - - - S 32 41 17 22 - - -
18/06:30pm 23.2 - - - - S 33 54 18 29 - - -
18/06:28pm 23.1 - - - - S 33 54 18 29 - - -
18/06:00pm 23.6 - - - - S 35 46 19 25 - - -
18/05:30pm 23.8 - - - - S 39 50 21 27 - - -
18/05:00pm 24.2 - - - - S 37 52 20 28 - - -
18/04:30pm 24.6 - - - - S 37 52 20 28 - - -
18/04:11pm 25.2 - - - - S 39 57 21 31 - - -
18/04:00pm 25.2 - - - - S 37 52 20 28 - - -
18/03:30pm 26.0 - - - - S 30 44 16 24 - - -
18/03:00pm 25.5 - - - - S 32 43 17 23 - - -
18/02:30pm 25.5 - - - - S 33 48 18 26 - - -
18/02:00pm 25.5 - - - - S 33 46 18 25 - - -
18/01:30pm 25.8 - - - - S 35 44 19 24 - - -
18/01:00pm 25.6 - - - - S 32 43 17 23 - - -
18/12:30pm 26.4 - - - - S 26 35 14 19 - - -
18/12:00pm 26.3 - - - - S 35 43 19 23 - - -
18/11:30am 26.2 - - - - S 33 44 18 24 - - -
18/11:00am 26.1 - - - - S 32 46 17 25 - - -
18/10:30am 24.9 - - - - S 39 52 21 28 - - -
18/10:00am 25.9 - - - - S 39 48 21 26 - - -
18/09:30am 28.0 - - - - SW 32 54 17 29 - - -
18/09:29am 28.5 - - - - WSW 32 54 17 29 - - -
18/09:28am 31.8 - - - - WSW 30 50 16 27 - - -
18/09:22am 36.8 - - - - W 33 50 18 27 - - -
18/09:00am 36.0 - - - - WNW 30 41 16 22 - - -
18/08:30am 35.6 - - - - WNW 24 39 13 21 - - -
18/08:00am 35.0 - - - - WNW 24 37 13 20 - - -
18/07:30am 33.9 - - - - WNW 13 22 7 12 - - -
18/07:00am 34.1 - - - - WNW 20 30 11 16 - - -
18/06:30am 33.9 - - - - WNW 19 26 10 14 - - -
18/06:00am 33.7 - - - - WNW 15 20 8 11 - - -
18/05:30am 33.6 - - - - WNW 15 22 8 12 - - -
18/05:00am 33.3 - - - - WNW 17 22 9 12 - - -
18/04:30am 32.9 - - - - NW 13 22 7 12 - - -
18/04:00am 32.2 - - - - NW 11 17 6 9 - - -
18/03:30am 29.4 - - - - NW 7 15 4 8 - - -
18/03:00am 26.0 - - - - CALM 0 0 0 0 - - -
18/02:30am 25.6 - - - - NE 6 9 3 5 - - -
18/02:00am 26.0 - - - - CALM 0 0 0 0 - - -
18/01:30am 26.2 - - - - CALM 0 0 0 0 - - -
18/01:00am 26.0 - - - - NE 2 6 1 3 - - -
18/12:30am 27.7 - - - - NE 9 9 5 5 - - -
18/12:00am 26.4 - - - - NE 9 13 5 7 - - -
 
Date/Time
EDT
Temp
°C
App
Temp
°C
Dew
Point
°C
Rel
Hum
%
Delta-T
°C
Wind Press
QNH
hPa
Press
MSL
hPa
Rain since
9am
mm
Dir  Spd
km/h
Gust
km/h
Spd
kts
Gust
kts
17/11:30pm 24.8 - - - - NNE 17 19 9 10 - - -
17/11:00pm 25.8 - - - - N 15 20 8 11 - - -
17/10:30pm 26.3 - - - - ENE 15 20 8 11 - - -
17/10:00pm 26.5 - - - - E 15 24 8 13 - - -
17/09:30pm 26.5 - - - - ENE 17 24 9 13 - - -
17/09:00pm 25.3 - - - - NNE 33 39 18 21 - - -
17/08:30pm 25.3 - - - - NNE 37 41 20 22 - - -
17/08:00pm 25.6 - - - - NNE 41 48 22 26 - - -
17/07:30pm 26.0 - - - - NNE 44 50 24 27 - - -
17/07:00pm 27.8 - - - - NNE 46 54 25 29 - - -
17/06:30pm 26.7 - - - - NNE 41 48 22 26 - - -
17/06:00pm 26.9 - - - - NNE 41 46 22 25 - - -
17/05:30pm 26.7 - - - - NNE 43 48 23 26 - - -
17/05:00pm 26.4 - - - - NNE 43 50 23 27 - - -
17/04:30pm 25.9 - - - - NNE 46 52 25 28 - - -
17/04:00pm 25.2 - - - - NNE 39 44 21 24 - - -
17/03:30pm 25.4 - - - - NNE 41 50 22 27 - - -
17/03:00pm 24.5 - - - - NNE 35 41 19 22 - - -
17/02:30pm 24.4 - - - - NNE 30 35 16 19 - - -
17/02:00pm 24.0 - - - - NNE 26 30 14 16 - - -
17/01:30pm 24.2 - - - - N 24 30 13 16 - - -
17/01:00pm 23.9 - - - - N 22 28 12 15 - - -
17/12:30pm 24.1 - - - - NNE 22 26 12 14 - - -
17/12:00pm 23.9 - - - - NNE 26 32 14 17 - - -
17/11:30am 23.1 - - - - NNE 24 28 13 15 - - -
17/11:00am 23.0 - - - - NNE 24 28 13 15 - - -
17/10:30am 22.6 - - - - NNE 20 24 11 13 - - -
17/10:00am 22.3 - - - - NNE 20 26 11 14 - - -
17/09:30am 22.8 - - - - NNE 11 13 6 7 - - -
17/09:00am 22.6 - - - - NNE 13 13 7 7 - - -
17/08:30am 22.3 - - - - NNE 9 11 5 6 - - -
17/08:00am 22.1 - - - - N 11 13 6 7 - - -
17/07:30am 21.6 - - - - N 7 7 4 4 - - -
17/07:00am 21.4 - - - - N 7 9 4 5 - - -
17/06:30am 21.3 - - - - N 7 9 4 5 - - -
17/06:00am 21.2 - - - - N 9 13 5 7 - - -
17/05:30am 21.2 - - - - N 7 9 4 5 - - -
17/05:00am 21.3 - - - - N 9 11 5 6 - - -
17/04:30am 21.4 - - - - NNE 11 13 6 7 - - -
17/04:00am 21.4 - - - - NNE 11 15 6 8 - - -
17/03:30am 21.4 - - - - NNE 11 13 6 7 - - -
17/03:00am 21.4 - - - - NNE 9 9 5 5 - - -
17/02:30am 21.4 - - - - CALM 0 0 0 0 - - -
17/02:00am 21.7 - - - - NNE 11 13 6 7 - - -
17/01:30am 21.8 - - - - NNE 6 9 3 5 - - -
17/01:00am 22.2 - - - - NNE 19 20 10 11 - - -
17/12:30am 22.4 - - - - NNE 28 33 15 18 - - -
17/12:00am 22.5 - - - - N 26 32 14 17 - - -
 
Date/Time
EDT
Temp
°C
App
Temp
°C
Dew
Point
°C
Rel
Hum
%
Delta-T
°C
Wind Press
QNH
hPa
Press
MSL
hPa
Rain since
9am
mm
Dir  Spd
km/h
Gust
km/h
Spd
kts
Gust
kts
16/11:30pm 22.5 - - - - N 26 33 14 18 - - -
16/11:00pm 22.7 - - - - NNE 24 32 13 17 - - -
16/10:30pm 22.6 - - - - NNE 28 35 15 19 - - -
16/10:00pm 22.7 - - - - NNE 33 39 18 21 - - -
16/09:30pm 22.9 - - - - NNE 33 39 18 21 - - -
16/09:00pm 23.0 - - - - NNE 35 41 19 22 - - -
16/08:30pm 23.1 - - - - NNE 39 46 21 25 - - -
16/08:00pm 23.3 - - - - NNE 39 46 21 25 - - -
16/07:30pm 23.3 - - - - NNE 39 46 21 25 - - -
16/07:00pm 23.4 - - - - NNE 37 46 20 25 - - -
16/06:30pm 23.6 - - - - NNE 41 50 22 27 - - -
16/06:00pm 23.7 - - - - NNE 39 48 21 26 - - -
16/05:30pm 23.6 - - - - NNE 41 50 22 27 - - -
16/05:00pm 23.8 - - - - NNE 37 48 20 26 - - -
16/04:30pm 23.8 - - - - NNE 37 46 20 25 - - -
16/04:00pm 23.7 - - - - NNE 39 50 21 27 - - -
16/03:30pm 23.7 - - - - NNE 37 44 20 24 - - -
16/03:00pm 23.6 - - - - NNE 41 50 22 27 - - -
16/02:30pm 23.5 - - - - NNE 37 44 20 24 - - -
16/02:00pm 23.6 - - - - NNE 39 46 21 25 - - -
16/01:30pm 23.4 - - - - NNE 35 43 19 23 - - -
16/01:00pm 23.3 - - - - NNE 37 43 20 23 - - -
16/12:30pm 23.4 - - - - NNE 37 44 20 24 - - -
16/12:00pm 23.2 - - - - NNE 33 44 18 24 - - -
16/11:30am 23.3 - - - - NNE 33 39 18 21 - - -
16/11:00am 23.1 - - - - NNE 32 39 17 21 - - -
16/10:30am 23.1 - - - - NNE 30 37 16 20 - - -
16/10:00am 22.9 - - - - NNE 28 32 15 17 - - -
16/09:30am 22.7 - - - - NNE 26 33 14 18 - - -
16/09:00am 22.9 - - - - NNE 28 33 15 18 - - -
16/08:30am 23.2 - - - - N 20 26 11 14 - - -
16/08:00am 22.7 - - - - N 19 24 10 13 - - -
16/07:30am 22.2 - - - - N 13 17 7 9 - - -
16/07:00am 21.9 - - - - N 13 15 7 8 - - -
16/06:30am 21.6 - - - - N 15 17 8 9 - - -
16/06:00am 21.6 - - - - N 13 15 7 8 - - -
16/05:30am 21.7 - - - - N 13 15 7 8 - - -
16/05:00am 21.9 - - - - N 13 17 7 9 - - -
16/04:30am 22.1 - - - - N 13 17 7 9 - - -
16/04:00am 22.3 - - - - N 15 19 8 10 - - -
16/03:30am 22.4 - - - - NNE 13 17 7 9 - - -
16/03:00am 22.6 - - - - N 11 15 6 8 - - -
16/02:30am 22.4 - - - - NNE 15 19 8 10 - - -
16/02:00am 22.5 - - - - NNE 15 19 8 10 - - -
16/01:30am 22.4 - - - - NE 17 19 9 10 - - -
16/01:00am 22.5 - - - - NNE 22 26 12 14 - - -
16/12:30am 22.5 - - - - NNE 22 26 12 14 - - -
16/12:00am 22.5 - - - - NNE 22 26 12 14 - - -
 
Date/Time
EDT
Temp
°C
App
Temp
°C
Dew
Point
°C
Rel
Hum
%
Delta-T
°C
Wind Press
QNH
hPa
Press
MSL
hPa
Rain since
9am
mm
Dir  Spd
km/h
Gust
km/h
Spd
kts
Gust
kts
15/11:30pm 22.3 - - - - NNE 22 26 12 14 - - -
15/11:00pm 22.5 - - - - NNE 19 22 10 12 - - -
15/10:30pm 22.6 - - - - NNE 19 20 10 11 - - -
15/10:00pm 22.8 - - - - NNE 20 24 11 13 - - -
15/09:30pm 23.0 - - - - NE 22 26 12 14 - - -
15/09:00pm 23.0 - - - - ENE 22 28 12 15 - - -
15/08:30pm 22.9 - - - - ENE 22 26 12 14 - - -
15/08:00pm 23.0 - - - - ENE 24 28 13 15 - - -
15/07:30pm 23.2 - - - - ENE 22 28 12 15 - - -

Other Formats:

Comma delimited format used in spreadsheet applications
http://www.bom.gov.au/fwo/IDN60801/IDN60801.95766.axf

JavaScript Object Notation format (JSON) in row-major order
http://www.bom.gov.au/fwo/IDN60801/IDN60801.95766.json